Friday, May 25, 2018, 8:32 AM EDT
Back to Local

KISP, Islip Long Island Mac Art

Location: Ronkonkoma, NY, United States Lat: 40.8
Local Time: 8:32 AM EDT (12:32 GMT) Lon: -73.1
Time Zone: US/Eastern Elev: 98 ft

Show me the last for .
Show Decoded

2018-05-25 07:56 METAR KISP 251156Z 24007KT 10SM FEW250 21/13 A3004 RMK AO2 SLP172 T02060128
                 10206 20139 58001 =
2018-05-25 06:56 METAR KISP 251056Z 24004KT 10SM FEW250 17/13 A3005 RMK AO2 SLP175 T01720128 =
2018-05-25 05:56 METAR KISP 250956Z 23005KT 10SM FEW250 15/11 A3005 RMK AO2 SLP175 T01500111 =
2018-05-25 04:56 METAR KISP 250856Z AUTO 23004KT 10SM CLR 15/11 A3004 RMK AO2 SLP173 T01500106
                 56011 =
2018-05-25 03:56 METAR KISP 250756Z AUTO 23005KT 10SM CLR 15/09 A3005 RMK AO2 SLP176 T01500089 =
2018-05-25 02:56 METAR KISP 250656Z AUTO 22006KT 10SM CLR 16/09 A3006 RMK AO2 SLP177 T01610089 =
2018-05-25 01:56 METAR KISP 250556Z AUTO 23007KT 10SM CLR 16/11 A3008 RMK AO2 SLP184 T01610106
                 10194 20161 58010 =
2018-05-25 00:56 METAR KISP 250456Z AUTO 22009KT 10SM CLR 16/12 A3009 RMK AO2 SLP187 T01610117
                 402780144 =
2018-05-24 23:56 METAR KISP 250356Z 22009G17KT 10SM CLR 17/09 A3010 RMK AO2 SLP192 LAST T01720094
                 =
2018-05-24 22:56 METAR KISP 250256Z 21009KT 10SM CLR 17/10 A3011 RMK AO2 SLP194 T01670100 50005 =
2018-05-24 21:56 METAR KISP 250156Z 21009KT 10SM CLR 17/10 A3011 RMK AO2 SLP194 T01720100 =
2018-05-24 20:56 METAR KISP 250056Z 22008KT 10SM CLR 17/11 A3010 RMK AO2 SLP191 T01720106 =
2018-05-24 19:56 METAR KISP 242356Z 22009KT 10SM CLR 19/08 A3009 RMK AO2 SLP189 T01940078 10278
                 20194 53002 =
2018-05-24 18:56 METAR KISP 242256Z 23009KT 10SM CLR 23/06 A3008 RMK AO2 SLP185 T02280061 =
2018-05-24 17:56 METAR KISP 242156Z 22013KT 10SM FEW250 23/05 A3008 RMK AO2 SLP185 T02330050 =
2018-05-24 16:56 METAR KISP 242056Z 22011KT 10SM CLR 24/07 A3008 RMK AO2 SLP187 T02440067 56007 =
2018-05-24 15:56 METAR KISP 241956Z 34008KT 10SM FEW250 27/03 A3009 RMK AO2 SLP188 T02720033 $ =
2018-05-24 14:56 METAR KISP 241856Z 36010KT 10SM FEW250 27/03 A3009 RMK AO2 SLP190 T02720033 $ =
2018-05-24 13:56 METAR KISP 241756Z 32014KT 10SM FEW250 26/02 A3010 RMK AO2 SLP193 T02610022
                 10261 20200 58006 $ =
2018-05-24 12:56 METAR KISP 241656Z 35010KT 10SM FEW250 26/02 A3012 RMK AO2 SLP198 T02560022 =
2018-05-24 11:56 METAR KISP 241556Z 34008G17KT 10SM FEW250 24/03 A3013 RMK AO2 SLP202 T02440028 =
2018-05-24 10:56 METAR KISP 241456Z 33012KT 10SM FEW250 23/06 A3012 RMK AO2 SLP199 T02330061
                 53008 =
2018-05-24 09:56 METAR KISP 241356Z 34011G19KT 10SM FEW250 23/05 A3011 RMK AO2 SLP196 T02280050 =
2018-05-24 08:56 METAR KISP 241256Z 36014KT 10SM FEW250 21/08 A3010 RMK AO2 SLP193 T02110078 $ =

Support USWX by starting your Amazon purchase here.